createdAt,value
2023-02-11T00:00:00.000Z,59.73
2023-02-11T00:15:00.000Z,59.1
2023-02-11T00:30:00.000Z,58.56
2023-02-11T00:45:00.000Z,58.58
2023-02-11T01:00:00.000Z,58.88
2023-02-11T01:15:00.000Z,59.2
2023-02-11T01:30:00.000Z,59.72
2023-02-11T01:45:00.000Z,60.05
2023-02-11T02:00:00.000Z,60.01
2023-02-11T02:15:00.000Z,60.57
2023-02-11T02:30:00.000Z,60.9
2023-02-11T02:45:00.000Z,60.88
2023-02-11T03:00:00.000Z,60.4
2023-02-11T03:15:00.000Z,59.59
2023-02-11T03:30:00.000Z,59.33
2023-02-11T03:45:00.000Z,58.67
2023-02-11T04:00:00.000Z,58.16
2023-02-11T04:15:00.000Z,58.14
2023-02-11T04:30:00.000Z,58.31
2023-02-11T04:45:00.000Z,58.68
2023-02-11T05:00:00.000Z,57.42
2023-02-11T05:15:00.000Z,57.15
2023-02-11T05:30:00.000Z,57.5
2023-02-11T05:45:00.000Z,57.93
2023-02-11T06:00:00.000Z,57.06
2023-02-11T06:15:00.000Z,56.04
2023-02-11T06:30:00.000Z,56.11
2023-02-11T06:45:00.000Z,55.13
2023-02-11T07:00:00.000Z,54.12
2023-02-11T07:15:00.000Z,52.73
2023-02-11T07:30:00.000Z,51.88
2023-02-11T07:45:00.000Z,51.82
2023-02-11T08:00:00.000Z,50.58
2023-02-11T08:15:00.000Z,49.85
2023-02-11T08:30:00.000Z,48.61
2023-02-11T08:45:00.000Z,46.75
2023-02-11T09:00:00.000Z,46.03
2023-02-11T09:15:00.000Z,43.5
2023-02-11T09:30:00.000Z,42.25
2023-02-11T09:45:00.000Z,42.21
2023-02-11T10:00:00.000Z,42.52
2023-02-11T10:15:00.000Z,41.72
2023-02-11T10:30:00.000Z,41.86
2023-02-11T10:45:00.000Z,41.14
2023-02-11T11:00:00.000Z,39.54
2023-02-11T11:15:00.000Z,37.94
2023-02-11T11:30:00.000Z,37.09
2023-02-11T11:45:00.000Z,36.51
2023-02-11T12:00:00.000Z,35.88
2023-02-11T12:15:00.000Z,32.43
2023-02-11T12:30:00.000Z,32.37
2023-02-11T12:45:00.000Z,32.6
2023-02-11T13:00:00.000Z,33.58
2023-02-11T13:15:00.000Z,33.34
2023-02-11T13:30:00.000Z,33.53
2023-02-11T13:45:00.000Z,33
2023-02-11T14:00:00.000Z,32.5
2023-02-11T14:15:00.000Z,32.76
2023-02-11T14:30:00.000Z,33.22
2023-02-11T14:45:00.000Z,34.47
2023-02-11T15:00:00.000Z,36.57
2023-02-11T15:15:00.000Z,37.7
2023-02-11T15:30:00.000Z,37.23
2023-02-11T15:45:00.000Z,38.48
2023-02-11T16:00:00.000Z,39
2023-02-11T16:15:00.000Z,39.87
2023-02-11T16:30:00.000Z,40.77
2023-02-11T16:45:00.000Z,42.15
2023-02-11T17:00:00.000Z,41.33
2023-02-11T17:15:00.000Z,43.56
2023-02-11T17:30:00.000Z,45.73
2023-02-11T17:45:00.000Z,46.37
2023-02-11T18:00:00.000Z,45.95
2023-02-11T18:15:00.000Z,47.67
2023-02-11T18:30:00.000Z,48.72
2023-02-11T18:45:00.000Z,49.88
2023-02-11T19:00:00.000Z,49.34
2023-02-11T19:15:00.000Z,49.33
2023-02-11T19:30:00.000Z,50.56
2023-02-11T19:45:00.000Z,51.96
2023-02-11T20:00:00.000Z,52.67
2023-02-11T20:15:00.000Z,53.63
2023-02-11T20:30:00.000Z,54.65
2023-02-11T20:45:00.000Z,54.24
2023-02-11T21:00:00.000Z,53.56
2023-02-11T21:15:00.000Z,52.8
2023-02-11T21:30:00.000Z,53.46
2023-02-11T21:45:00.000Z,53.51
2023-02-11T22:00:00.000Z,53.97
2023-02-11T22:15:00.000Z,54.35
2023-02-11T22:30:00.000Z,55.84
2023-02-11T22:45:00.000Z,55.58
2023-02-11T23:00:00.000Z,56.31
2023-02-11T23:15:00.000Z,57.07
2023-02-11T23:30:00.000Z,57.41
2023-02-11T23:45:00.000Z,57.1
